Time;durP1;ratioP1;P1;durP2;ratioP2;P2;SDS_P1;SDS_P2;PMS_P1;PMS_P2;Temp;Humidity;BMP_temperature;BMP_pressure;BME280_temperature;BME280_humidity;BME280_pressure;Samples;Min_cycle;Max_cycle;Signal;HPM_P1;HPM_P2
2023/05/13 00:00:29;;;;;;;;;;;13.50;93.90;;;;;;4916532;29;20434;-96
2023/05/13 00:02:55;;;;;;;;;;;13.50;93.90;;;;;;4934152;29;19947;-96
2023/05/13 00:05:22;;;;;;;;;;;13.50;93.80;;;;;;4916492;29;19919;-95
2023/05/13 00:07:48;;;;;;;;;;;13.40;93.80;;;;;;4916665;29;19981;-96
2023/05/13 00:10:15;;;;;;;;;;;13.40;93.80;;;;;;4916340;29;19911;-96
2023/05/13 00:12:41;;;;;;;;;;;13.40;93.70;;;;;;4916787;29;19946;-96
2023/05/13 00:15:07;;;;;;;;;;;13.50;93.50;;;;;;4915719;29;19915;-96
2023/05/13 00:17:33;;;;;;;;;;;13.50;93.40;;;;;;4915791;29;19912;-96
2023/05/13 00:19:59;;;;;;;;;;;13.50;93.30;;;;;;4916884;29;20026;-96
2023/05/13 00:22:25;;;;;;;;;;;13.50;93.20;;;;;;4916062;29;19917;-96
2023/05/13 00:24:51;;;;;;;;;;;13.50;93.10;;;;;;4916031;29;19998;-96
2023/05/13 00:27:17;;;;;;;;;;;13.50;93.10;;;;;;4916203;29;19915;-96
2023/05/13 00:29:43;;;;;;;;;;;13.50;92.90;;;;;;4916023;29;19915;-96
2023/05/13 00:32:09;;;;;;;;;;;13.50;93.00;;;;;;4916099;29;19983;-96
2023/05/13 00:34:35;;;;;;;;;;;13.50;92.90;;;;;;4916823;29;19978;-96
2023/05/13 00:37:01;;;;;;;;;;;13.60;92.70;;;;;;4915793;29;19918;-96
2023/05/13 00:39:27;;;;;;;;;;;13.50;92.50;;;;;;4915906;29;19958;-96
2023/05/13 00:41:53;;;;;;;;;;;13.50;92.50;;;;;;4915932;29;19917;-96
2023/05/13 00:44:22;;;;;;;;;;;13.50;92.40;;;;;;4916078;29;20363;-96
2023/05/13 00:46:50;;;;;;;;;;;13.50;92.40;;;;;;4915499;29;19911;-95
2023/05/13 00:49:16;;;;;;;;;;;13.50;92.40;;;;;;4915892;29;19911;-96
2023/05/13 00:51:43;;;;;;;;;;;13.50;92.30;;;;;;4932574;29;19911;-96
2023/05/13 00:54:09;;;;;;;;;;;13.40;92.40;;;;;;4916048;29;19911;-96
2023/05/13 00:56:41;;;;;;;;;;;13.40;92.60;;;;;;4931135;29;19962;-96
2023/05/13 00:59:07;;;;;;;;;;;13.30;92.80;;;;;;4929886;29;19915;-96
2023/05/13 01:01:52;;;;;;;;;;;13.20;93.10;;;;;;4929644;29;19919;-96
2023/05/13 01:04:33;;;;;;;;;;;13.10;93.60;;;;;;4931187;29;19971;-96
2023/05/13 01:07:05;;;;;;;;;;;13.00;93.90;;;;;;4916659;29;19911;-96
2023/05/13 01:09:33;;;;;;;;;;;13.00;94.10;;;;;;4934368;29;19915;-96
2023/05/13 01:12:03;;;;;;;;;;;13.10;94.30;;;;;;4935438;29;19987;-96
2023/05/13 01:14:32;;;;;;;;;;;13.10;94.30;;;;;;4935129;29;19962;-96
2023/05/13 01:17:01;;;;;;;;;;;13.20;94.50;;;;;;4919940;29;19946;-96
2023/05/13 01:19:48;;;;;;;;;;;13.20;94.50;;;;;;4919532;29;19985;-96
2023/05/13 01:22:14;;;;;;;;;;;13.20;94.40;;;;;;4919889;29;19911;-96
2023/05/13 01:24:40;;;;;;;;;;;13.30;94.30;;;;;;4919315;29;19915;-96
2023/05/13 01:27:06;;;;;;;;;;;13.30;94.30;;;;;;4919498;29;19957;-96
2023/05/13 01:29:41;;;;;;;;;;;13.30;94.10;;;;;;4918857;29;19935;-96
2023/05/13 01:32:19;;;;;;;;;;;13.30;93.90;;;;;;4936226;29;19990;-96
2023/05/13 01:34:45;;;;;;;;;;;13.30;93.90;;;;;;4919081;29;20356;-96
2023/05/13 01:37:14;;;;;;;;;;;13.30;93.80;;;;;;4919617;29;19911;-96
2023/05/13 01:39:40;;;;;;;;;;;13.30;93.70;;;;;;4919754;29;19917;-96
2023/05/13 01:42:06;;;;;;;;;;;13.30;93.80;;;;;;4918681;29;19911;-96
2023/05/13 01:44:32;;;;;;;;;;;13.30;93.80;;;;;;4918830;29;19923;-96
2023/05/13 01:46:58;;;;;;;;;;;13.30;93.90;;;;;;4918811;29;19983;-96
2023/05/13 01:49:24;;;;;;;;;;;13.20;94.10;;;;;;4918347;29;19936;-96
2023/05/13 01:51:50;;;;;;;;;;;13.20;94.10;;;;;;4917931;29;19911;-96
2023/05/13 01:54:16;;;;;;;;;;;13.10;94.30;;;;;;4918630;29;19947;-96
2023/05/13 01:56:42;;;;;;;;;;;13.10;94.40;;;;;;4918926;29;19934;-96
2023/05/13 01:59:09;;;;;;;;;;;13.20;94.30;;;;;;4918332;29;19911;-96
2023/05/13 02:01:35;;;;;;;;;;;13.10;94.20;;;;;;4918638;29;20394;-96
2023/05/13 02:04:02;;;;;;;;;;;13.10;94.10;;;;;;4934355;29;19922;-96
2023/05/13 02:06:28;;;;;;;;;;;13.10;94.10;;;;;;4919541;29;19911;-96
2023/05/13 02:08:54;;;;;;;;;;;13.10;94.00;;;;;;4919151;29;19912;-96
2023/05/13 02:11:21;;;;;;;;;;;13.10;93.90;;;;;;4918517;29;19917;-96
2023/05/13 02:13:49;;;;;;;;;;;13.10;93.80;;;;;;4918741;29;19911;-96
2023/05/13 02:16:17;;;;;;;;;;;13.10;93.80;;;;;;4935098;29;19911;-96
2023/05/13 02:18:43;;;;;;;;;;;13.10;93.80;;;;;;4916754;29;19977;-96
2023/05/13 02:21:09;;;;;;;;;;;13.10;93.90;;;;;;4918697;29;19915;-96
2023/05/13 02:23:35;;;;;;;;;;;13.10;94.10;;;;;;4918244;29;19911;-96
2023/05/13 02:26:00;;;;;;;;;;;13.00;94.30;;;;;;4917981;29;19983;-96
2023/05/13 02:28:26;;;;;;;;;;;13.00;94.30;;;;;;4917749;29;19958;-96
2023/05/13 02:30:52;;;;;;;;;;;13.00;94.40;;;;;;4918131;29;19911;-96
2023/05/13 02:33:18;;;;;;;;;;;13.00;94.50;;;;;;4934829;29;20311;-96
2023/05/13 02:35:49;;;;;;;;;;;13.00;94.50;;;;;;4916814;29;19911;-96
2023/05/13 02:38:15;;;;;;;;;;;13.00;94.60;;;;;;4933907;29;19918;-96
2023/05/13 02:40:41;;;;;;;;;;;13.10;94.40;;;;;;4934767;29;19911;-96
2023/05/13 02:43:07;;;;;;;;;;;13.10;94.30;;;;;;4917982;29;20383;-96
2023/05/13 02:45:33;;;;;;;;;;;13.10;94.20;;;;;;4917148;29;19966;-96
2023/05/13 02:48:02;;;;;;;;;;;13.00;94.20;;;;;;4916751;29;19970;-96
2023/05/13 02:50:28;;;;;;;;;;;13.10;94.20;;;;;;4916744;29;19922;-96
2023/05/13 02:52:54;;;;;;;;;;;13.00;94.10;;;;;;4933270;29;19911;-96
2023/05/13 02:55:20;;;;;;;;;;;13.10;94.10;;;;;;4933717;29;20018;-96
2023/05/13 02:57:45;;;;;;;;;;;13.00;94.00;;;;;;4916682;29;19912;-96
2023/05/13 03:00:11;;;;;;;;;;;12.90;94.10;;;;;;4916392;29;19911;-96
2023/05/13 03:02:37;;;;;;;;;;;12.90;94.20;;;;;;4932031;29;19927;-96
2023/05/13 03:05:03;;;;;;;;;;;12.90;94.10;;;;;;4916151;29;20029;-96
2023/05/13 03:07:29;;;;;;;;;;;12.90;93.90;;;;;;4916345;29;19917;-96
2023/05/13 03:09:55;;;;;;;;;;;12.90;93.80;;;;;;4916165;29;19946;-96
2023/05/13 03:12:23;;;;;;;;;;;12.90;93.90;;;;;;4916383;29;20295;-96
2023/05/13 03:14:51;;;;;;;;;;;12.80;93.90;;;;;;4915956;29;19911;-96
2023/05/13 03:17:17;;;;;;;;;;;12.70;93.90;;;;;;4916346;29;20406;-96
2023/05/13 03:19:43;;;;;;;;;;;12.70;94.00;;;;;;4933867;29;19950;-96
2023/05/13 03:22:11;;;;;;;;;;;12.60;93.90;;;;;;4916926;29;19918;-96
2023/05/13 03:24:37;;;;;;;;;;;12.60;93.70;;;;;;4917776;29;19978;-96
2023/05/13 03:27:05;;;;;;;;;;;12.50;93.50;;;;;;4917478;29;19978;-96
2023/05/13 03:29:31;;;;;;;;;;;12.40;93.40;;;;;;4916579;29;19911;-96
2023/05/13 03:31:57;;;;;;;;;;;12.40;93.50;;;;;;4933580;29;19923;-96
2023/05/13 03:34:23;;;;;;;;;;;12.40;93.60;;;;;;4917723;29;19911;-96
2023/05/13 03:36:49;;;;;;;;;;;12.40;93.50;;;;;;4933651;29;19943;-96
2023/05/13 03:39:15;;;;;;;;;;;12.30;93.50;;;;;;4932992;29;19911;-96
2023/05/13 03:41:41;;;;;;;;;;;12.30;93.50;;;;;;4932674;29;19911;-96
2023/05/13 03:44:10;;;;;;;;;;;12.10;93.80;;;;;;4916546;29;19978;-96
2023/05/13 03:46:42;;;;;;;;;;;12.10;93.90;;;;;;4917033;29;19918;-96
2023/05/13 03:49:07;;;;;;;;;;;12.00;94.10;;;;;;4916423;29;19915;-96
2023/05/13 03:51:36;;;;;;;;;;;12.00;94.20;;;;;;4932451;29;19911;-96
2023/05/13 03:54:02;;;;;;;;;;;12.10;94.40;;;;;;4916906;29;19935;-96
2023/05/13 03:56:28;;;;;;;;;;;12.10;94.50;;;;;;4933079;29;19911;-96
2023/05/13 03:58:54;;;;;;;;;;;12.20;94.70;;;;;;4916671;29;19935;-96
2023/05/13 04:01:20;;;;;;;;;;;12.20;94.90;;;;;;4919271;29;19998;-96
2023/05/13 04:03:46;;;;;;;;;;;12.30;95.00;;;;;;4935537;29;19938;-96
2023/05/13 04:06:17;;;;;;;;;;;12.30;95.00;;;;;;4936294;29;19910;-96
2023/05/13 04:08:45;;;;;;;;;;;12.30;94.90;;;;;;4935652;29;19954;-96
2023/05/13 04:11:11;;;;;;;;;;;12.40;94.90;;;;;;4936972;29;20006;-96
2023/05/13 04:13:37;;;;;;;;;;;12.40;94.90;;;;;;4953161;29;19918;-96
2023/05/13 04:16:03;;;;;;;;;;;12.40;94.80;;;;;;4936499;29;20287;-96
2023/05/13 04:18:31;;;;;;;;;;;12.40;94.80;;;;;;4935967;29;19978;-96
2023/05/13 04:20:57;;;;;;;;;;;12.40;94.90;;;;;;4935506;29;19917;-96
2023/05/13 04:23:23;;;;;;;;;;;12.40;95.00;;;;;;4936283;29;19958;-96
2023/05/13 04:25:52;;;;;;;;;;;12.50;95.10;;;;;;4936694;29;19922;-96
2023/05/13 04:28:21;;;;;;;;;;;12.50;95.20;;;;;;4936677;29;19974;-96
2023/05/13 04:30:47;;;;;;;;;;;12.50;95.10;;;;;;4952795;29;20439;-96
2023/05/13 04:33:15;;;;;;;;;;;12.60;95.00;;;;;;4935432;29;20005;-96
2023/05/13 04:35:42;;;;;;;;;;;12.70;95.00;;;;;;4936325;29;20356;-96
2023/05/13 04:38:08;;;;;;;;;;;12.70;94.90;;;;;;4936243;29;19917;-96
2023/05/13 04:40:46;;;;;;;;;;;12.70;94.80;;;;;;4936754;29;19954;-96
2023/05/13 04:43:12;;;;;;;;;;;12.80;94.80;;;;;;4938533;29;20391;-96
2023/05/13 04:45:38;;;;;;;;;;;12.80;94.70;;;;;;4938983;29;19965;-96
2023/05/13 04:48:04;;;;;;;;;;;12.90;94.60;;;;;;4954399;29;19966;-96
2023/05/13 04:50:30;;;;;;;;;;;12.90;94.40;;;;;;4939112;29;19918;-96
2023/05/13 04:52:56;;;;;;;;;;;12.90;94.40;;;;;;4938556;29;19935;-96
2023/05/13 04:55:22;;;;;;;;;;;13.00;94.20;;;;;;4938155;29;19911;-96
2023/05/13 04:57:51;;;;;;;;;;;13.00;94.00;;;;;;4938961;29;20279;-96
2023/05/13 05:00:17;;;;;;;;;;;13.00;93.70;;;;;;4939902;29;19911;-96
2023/05/13 05:02:43;;;;;;;;;;;13.10;93.70;;;;;;4956680;29;19961;-96
2023/05/13 05:05:09;;;;;;;;;;;13.10;93.60;;;;;;4939968;29;19921;-96
2023/05/13 05:07:39;;;;;;;;;;;13.10;93.60;;;;;;4955883;29;19918;-96
2023/05/13 05:10:08;;;;;;;;;;;13.20;93.40;;;;;;4955368;29;19911;-96
2023/05/13 05:12:34;;;;;;;;;;;13.20;93.30;;;;;;4955262;29;19962;-96
2023/05/13 05:15:00;;;;;;;;;;;13.20;93.20;;;;;;4938269;29;19911;-96
2023/05/13 05:17:28;;;;;;;;;;;13.30;93.20;;;;;;4939004;29;19934;-96
2023/05/13 05:19:54;;;;;;;;;;;13.30;93.20;;;;;;4939532;29;19950;-96
2023/05/13 05:22:20;;;;;;;;;;;13.40;93.20;;;;;;4940096;29;19911;-95
2023/05/13 05:24:47;;;;;;;;;;;13.40;93.00;;;;;;4955362;29;20001;-96
2023/05/13 05:27:13;;;;;;;;;;;13.50;92.90;;;;;;4939008;29;19911;-96
2023/05/13 05:29:39;;;;;;;;;;;13.50;92.80;;;;;;4954679;29;19950;-96
2023/05/13 05:32:05;;;;;;;;;;;13.60;92.70;;;;;;4939013;29;19911;-96
2023/05/13 05:34:31;;;;;;;;;;;13.70;92.70;;;;;;4938595;29;19910;-96
2023/05/13 05:36:57;;;;;;;;;;;13.80;92.60;;;;;;4938455;29;19921;-96
2023/05/13 05:39:25;;;;;;;;;;;13.90;92.40;;;;;;4938559;29;19919;-96
2023/05/13 05:41:52;;;;;;;;;;;13.90;92.10;;;;;;4937759;29;20399;-96
2023/05/13 05:44:20;;;;;;;;;;;13.90;92.00;;;;;;4937299;29;19922;-96
2023/05/13 05:46:46;;;;;;;;;;;14.10;91.90;;;;;;4938423;29;19911;-96
2023/05/13 05:49:12;;;;;;;;;;;14.10;91.40;;;;;;4939030;29;19958;-96
2023/05/13 05:51:38;;;;;;;;;;;14.20;91.20;;;;;;4955143;29;19966;-96
2023/05/13 05:54:04;;;;;;;;;;;14.30;91.00;;;;;;4953175;29;19922;-96
2023/05/13 05:56:30;;;;;;;;;;;14.30;91.10;;;;;;4937215;29;19970;-96
2023/05/13 05:58:56;;;;;;;;;;;14.40;90.80;;;;;;4938366;29;19950;-96
2023/05/13 06:01:24;;;;;;;;;;;14.50;90.50;;;;;;4937446;29;19918;-96
2023/05/13 06:03:50;;;;;;;;;;;14.40;90.30;;;;;;4937387;29;19966;-96
2023/05/13 06:06:16;;;;;;;;;;;14.50;89.90;;;;;;4938267;29;19910;-96
2023/05/13 06:08:42;;;;;;;;;;;14.60;89.90;;;;;;4956522;29;19906;-96
2023/05/13 06:11:08;;;;;;;;;;;14.60;89.50;;;;;;4939172;29;19922;-96
2023/05/13 06:13:34;;;;;;;;;;;14.70;89.50;;;;;;4938733;29;19918;-96
2023/05/13 06:16:00;;;;;;;;;;;14.70;89.50;;;;;;4938733;29;19911;-96
2023/05/13 06:18:25;;;;;;;;;;;14.80;89.20;;;;;;4939318;29;19911;-96
2023/05/13 06:20:55;;;;;;;;;;;14.80;89.20;;;;;;4939308;29;19910;-96
2023/05/13 06:23:21;;;;;;;;;;;14.80;88.90;;;;;;4940103;29;19918;-96
2023/05/13 06:25:50;;;;;;;;;;;14.90;88.80;;;;;;4939697;29;19915;-96
2023/05/13 06:28:17;;;;;;;;;;;14.90;88.70;;;;;;4939519;29;19911;-96
2023/05/13 06:30:43;;;;;;;;;;;14.90;88.70;;;;;;4940135;29;19966;-96
2023/05/13 06:33:11;;;;;;;;;;;15.00;88.90;;;;;;4940201;29;19917;-96
2023/05/13 06:35:37;;;;;;;;;;;15.10;88.60;;;;;;4939900;29;19911;-96
2023/05/13 06:38:03;;;;;;;;;;;15.10;88.40;;;;;;4939495;29;19911;-96
2023/05/13 06:40:30;;;;;;;;;;;15.10;88.00;;;;;;4939724;29;19910;-96
2023/05/13 06:42:56;;;;;;;;;;;15.10;88.30;;;;;;4955468;29;19911;-96
2023/05/13 06:45:23;;;;;;;;;;;15.20;88.10;;;;;;4939626;29;19914;-96
2023/05/13 06:47:50;;;;;;;;;;;15.20;88.20;;;;;;4939552;29;19917;-96
2023/05/13 06:50:16;;;;;;;;;;;15.30;87.90;;;;;;4939030;29;19939;-95
2023/05/13 06:52:42;;;;;;;;;;;15.30;87.90;;;;;;4955462;29;19917;-95
2023/05/13 06:55:09;;;;;;;;;;;15.30;87.30;;;;;;4939076;29;20271;-96
2023/05/13 06:57:36;;;;;;;;;;;15.40;87.40;;;;;;4939491;29;19911;-96
2023/05/13 07:00:02;;;;;;;;;;;15.40;87.30;;;;;;4939341;29;20005;-96
2023/05/13 07:02:31;;;;;;;;;;;15.40;87.30;;;;;;5018714;23;19927;-96
2023/05/13 07:04:57;;;;;;;;;;;15.40;87.30;;;;;;4938431;29;19926;-96
2023/05/13 07:07:26;;;;;;;;;;;15.40;87.10;;;;;;4940390;29;19917;-96
2023/05/13 07:09:52;;;;;;;;;;;15.50;86.90;;;;;;4939928;29;19942;-96
2023/05/13 07:12:19;;;;;;;;;;;15.60;86.70;;;;;;4940353;29;19950;-96
2023/05/13 07:14:47;;;;;;;;;;;15.40;87.10;;;;;;4940304;29;19910;-96
2023/05/13 07:17:14;;;;;;;;;;;15.50;87.00;;;;;;4941114;29;19911;-96
2023/05/13 07:19:40;;;;;;;;;;;15.50;87.30;;;;;;4939888;29;19934;-96
2023/05/13 07:22:13;;;;;;;;;;;15.50;87.30;;;;;;4941182;29;19915;-96
2023/05/13 07:24:40;;;;;;;;;;;15.50;87.10;;;;;;4940200;29;19915;-96
2023/05/13 07:27:15;;;;;;;;;;;15.60;87.30;;;;;;4940542;29;19914;-96
2023/05/13 07:29:41;;;;;;;;;;;15.60;87.00;;;;;;4940054;29;20005;-96
2023/05/13 07:32:11;;;;;;;;;;;15.60;86.80;;;;;;4939878;29;19911;-96
2023/05/13 07:34:40;;;;;;;;;;;15.60;86.60;;;;;;4940445;29;19922;-96
2023/05/13 07:37:09;;;;;;;;;;;15.70;86.70;;;;;;4939982;29;19922;-96
2023/05/13 07:39:35;;;;;;;;;;;15.80;86.00;;;;;;4940128;29;19981;-96
2023/05/13 07:42:02;;;;;;;;;;;15.80;85.70;;;;;;4940009;29;19986;-96
2023/05/13 07:44:30;;;;;;;;;;;15.80;85.30;;;;;;4939352;29;19915;-96
2023/05/13 07:47:01;;;;;;;;;;;15.90;85.00;;;;;;4939687;29;19915;-96
2023/05/13 07:49:27;;;;;;;;;;;15.90;85.60;;;;;;4940121;29;19915;-96
2023/05/13 07:51:54;;;;;;;;;;;16.00;84.80;;;;;;4939228;29;19935;-96
2023/05/13 07:54:25;;;;;;;;;;;16.00;84.40;;;;;;4939460;29;19910;-96
2023/05/13 07:56:51;;;;;;;;;;;16.20;84.80;;;;;;4940272;29;19966;-96
2023/05/13 07:59:18;;;;;;;;;;;16.30;84.40;;;;;;4939619;29;19911;-96
2023/05/13 08:01:47;;;;;;;;;;;16.40;82.70;;;;;;4939607;29;19923;-96
2023/05/13 08:04:14;;;;;;;;;;;16.50;82.90;;;;;;4940026;29;19921;-96
2023/05/13 08:06:46;;;;;;;;;;;16.60;82.70;;;;;;4938091;29;19918;-96
2023/05/13 08:09:15;;;;;;;;;;;16.60;81.30;;;;;;4938166;29;19959;-96
2023/05/13 08:11:45;;;;;;;;;;;16.80;81.40;;;;;;4937437;29;20425;-96
2023/05/13 08:14:11;;;;;;;;;;;16.70;80.60;;;;;;4937563;29;19935;-96
2023/05/13 08:16:37;;;;;;;;;;;16.80;79.50;;;;;;4940350;29;19922;-96
2023/05/13 08:19:03;;;;;;;;;;;16.70;79.00;;;;;;4942553;29;20367;-96
2023/05/13 08:21:30;;;;;;;;;;;16.70;79.90;;;;;;4941684;29;19917;-96
2023/05/13 08:23:56;;;;;;;;;;;16.70;79.30;;;;;;4959434;29;19923;-96
2023/05/13 08:26:23;;;;;;;;;;;16.70;79.40;;;;;;4942460;29;19918;-96
2023/05/13 08:28:51;;;;;;;;;;;16.70;81.10;;;;;;4943178;29;19977;-96
2023/05/13 08:31:18;;;;;;;;;;;16.80;79.80;;;;;;4942764;29;19911;-96
2023/05/13 08:33:47;;;;;;;;;;;16.90;81.30;;;;;;4944085;29;19911;-96
2023/05/13 08:36:16;;;;;;;;;;;17.00;80.70;;;;;;4943665;29;19911;-96
2023/05/13 08:38:43;;;;;;;;;;;17.10;79.60;;;;;;4959158;29;19934;-96
2023/05/13 08:41:13;;;;;;;;;;;17.10;80.80;;;;;;4942435;29;19911;-96
2023/05/13 08:43:39;;;;;;;;;;;17.30;79.40;;;;;;4942476;29;20446;-96
2023/05/13 08:46:10;;;;;;;;;;;17.30;78.10;;;;;;4942940;29;19911;-96
2023/05/13 08:48:38;;;;;;;;;;;17.30;77.10;;;;;;4942785;29;19966;-96
2023/05/13 08:51:05;;;;;;;;;;;17.30;76.50;;;;;;4943077;29;19910;-96
2023/05/13 08:53:46;;;;;;;;;;;17.40;77.70;;;;;;4941715;29;19918;-96
2023/05/13 08:56:14;;;;;;;;;;;17.50;77.00;;;;;;4942155;29;19944;-96
2023/05/13 08:58:43;;;;;;;;;;;17.50;76.90;;;;;;4941738;29;19910;-96
2023/05/13 09:01:10;;;;;;;;;;;17.60;76.00;;;;;;4941628;29;19978;-96
2023/05/13 09:03:40;;;;;;;;;;;17.70;75.80;;;;;;4941339;29;19915;-96
2023/05/13 09:06:06;;;;;;;;;;;17.70;75.40;;;;;;4941945;29;20028;-96
2023/05/13 09:08:35;;;;;;;;;;;17.80;75.40;;;;;;4941657;29;19911;-96
2023/05/13 09:11:04;;;;;;;;;;;17.90;76.40;;;;;;4941688;29;19982;-96
2023/05/13 09:13:31;;;;;;;;;;;18.00;76.50;;;;;;4941173;29;19911;-96
2023/05/13 09:15:57;;;;;;;;;;;18.20;75.90;;;;;;4941503;29;19911;-96
2023/05/13 09:18:28;;;;;;;;;;;18.10;75.80;;;;;;4940841;29;19918;-96
2023/05/13 09:20:57;;;;;;;;;;;18.20;73.50;;;;;;4940548;29;19934;-96
2023/05/13 09:23:23;;;;;;;;;;;18.30;73.30;;;;;;4940146;29;20367;-96
2023/05/13 09:25:49;;;;;;;;;;;18.20;74.50;;;;;;4940168;29;19898;-96
2023/05/13 09:28:19;;;;;;;;;;;18.30;76.20;;;;;;4940163;29;19911;-96
2023/05/13 09:30:53;;;;;;;;;;;18.40;74.40;;;;;;4940368;29;19910;-96
2023/05/13 09:33:23;;;;;;;;;;;18.40;75.90;;;;;;4941462;29;19911;-96
2023/05/13 09:35:51;;;;;;;;;;;18.70;75.90;;;;;;4942451;29;19953;-96
2023/05/13 09:38:27;;;;;;;;;;;18.80;75.30;;;;;;4941894;29;19911;-96
2023/05/13 09:40:55;;;;;;;;;;;19.00;74.80;;;;;;4940680;29;19917;-96
2023/05/13 09:43:22;;;;;;;;;;;19.20;74.30;;;;;;4937793;29;19911;-96
2023/05/13 09:45:52;;;;;;;;;;;19.30;72.90;;;;;;4937369;29;19949;-96
2023/05/13 09:48:19;;;;;;;;;;;19.30;73.60;;;;;;4936875;29;19911;-96
2023/05/13 09:50:47;;;;;;;;;;;19.30;72.00;;;;;;4938978;29;19934;-96
2023/05/13 09:53:13;;;;;;;;;;;19.30;72.20;;;;;;4936754;29;19971;-96
2023/05/13 09:55:43;;;;;;;;;;;19.30;68.60;;;;;;4937278;29;19911;-96
2023/05/13 09:58:11;;;;;;;;;;;19.40;69.90;;;;;;4936517;29;19950;-96
2023/05/13 10:00:39;;;;;;;;;;;19.40;70.80;;;;;;4936329;29;19918;-96
2023/05/13 10:03:05;;;;;;;;;;;19.40;70.30;;;;;;4936227;29;19929;-96
2023/05/13 10:05:34;;;;;;;;;;;19.40;70.60;;;;;;4936379;29;20296;-96
2023/05/13 10:08:01;;;;;;;;;;;19.50;72.20;;;;;;4936388;29;19911;-96
2023/05/13 10:10:29;;;;;;;;;;;19.50;71.90;;;;;;4936791;29;19986;-96
2023/05/13 10:12:55;;;;;;;;;;;19.30;70.30;;;;;;4937040;29;19911;-96
2023/05/13 10:15:23;;;;;;;;;;;19.10;69.70;;;;;;4954365;29;19946;-96
2023/05/13 10:17:49;;;;;;;;;;;19.10;69.40;;;;;;4937783;29;19934;-96
2023/05/13 10:20:16;;;;;;;;;;;19.00;69.00;;;;;;4936908;29;19935;-96
2023/05/13 10:22:42;;;;;;;;;;;19.00;69.20;;;;;;4936144;29;19934;-96
2023/05/13 10:25:11;;;;;;;;;;;18.90;70.50;;;;;;4936742;29;19915;-96
2023/05/13 10:27:38;;;;;;;;;;;18.90;72.50;;;;;;4936475;29;19914;-96
2023/05/13 10:30:08;;;;;;;;;;;18.90;69.30;;;;;;4936582;29;19911;-96
2023/05/13 10:32:35;;;;;;;;;;;18.90;71.70;;;;;;4953961;29;19911;-96
2023/05/13 10:35:04;;;;;;;;;;;18.90;70.20;;;;;;4936237;29;19934;-96
2023/05/13 10:37:33;;;;;;;;;;;18.90;70.30;;;;;;4936900;29;19911;-96
2023/05/13 10:40:02;;;;;;;;;;;18.90;70.70;;;;;;4934756;29;19918;-96
2023/05/13 10:42:42;;;;;;;;;;;19.00;71.30;;;;;;4936766;29;19957;-96
2023/05/13 10:45:08;;;;;;;;;;;19.10;68.40;;;;;;4935803;29;19915;-96
2023/05/13 10:47:37;;;;;;;;;;;19.20;68.10;;;;;;4952531;29;19918;-96
2023/05/13 10:50:20;;;;;;;;;;;19.20;70.30;;;;;;4935909;29;19959;-96
2023/05/13 10:52:46;;;;;;;;;;;19.20;69.80;;;;;;4936301;29;19915;-96
2023/05/13 10:55:18;;;;;;;;;;;19.30;68.90;;;;;;4935378;29;20356;-96
2023/05/13 10:58:04;;;;;;;;;;;19.30;69.60;;;;;;4935177;29;19910;-96
2023/05/13 11:00:30;;;;;;;;;;;19.30;67.30;;;;;;4924832;29;19911;-96
2023/05/13 11:02:56;;;;;;;;;;;19.30;69.20;;;;;;4935152;29;19929;-96
2023/05/13 11:05:22;;;;;;;;;;;19.30;66.20;;;;;;4934730;29;19914;-96
2023/05/13 11:07:55;;;;;;;;;;;19.30;69.10;;;;;;4933842;29;19962;-96
2023/05/13 11:10:29;;;;;;;;;;;19.30;70.00;;;;;;4934422;29;19935;-96
2023/05/13 11:13:13;;;;;;;;;;;19.30;69.40;;;;;;4950879;29;19935;-96
2023/05/13 11:15:43;;;;;;;;;;;19.30;68.20;;;;;;4935158;29;19934;-96
2023/05/13 11:18:10;;;;;;;;;;;19.30;68.30;;;;;;4934230;29;19934;-96
2023/05/13 11:20:43;;;;;;;;;;;19.50;70.20;;;;;;4933685;29;19959;-96
2023/05/13 11:23:15;;;;;;;;;;;19.50;66.90;;;;;;4951463;29;19917;-96
2023/05/13 11:25:42;;;;;;;;;;;19.40;66.50;;;;;;4933205;29;19919;-96
2023/05/13 11:28:08;;;;;;;;;;;19.60;65.50;;;;;;4934727;29;19911;-96
2023/05/13 11:30:34;;;;;;;;;;;19.60;65.30;;;;;;4933847;29;19911;-96
2023/05/13 11:33:01;;;;;;;;;;;19.60;64.90;;;;;;4933441;29;19911;-96
2023/05/13 11:35:31;;;;;;;;;;;19.80;66.00;;;;;;4933212;29;19926;-96
2023/05/13 11:38:01;;;;;;;;;;;19.90;64.20;;;;;;4951884;29;19919;-96
2023/05/13 11:40:33;;;;;;;;;;;20.00;64.60;;;;;;4935793;29;19946;-96
2023/05/13 11:43:00;;;;;;;;;;;20.10;63.30;;;;;;4934839;29;19911;-96
2023/05/13 11:45:27;;;;;;;;;;;20.20;64.40;;;;;;4935843;29;19942;-96
2023/05/13 11:47:53;;;;;;;;;;;20.20;61.90;;;;;;4950883;29;19911;-96
2023/05/13 11:50:29;;;;;;;;;;;20.10;61.30;;;;;;4934118;29;19923;-96
2023/05/13 11:52:59;;;;;;;;;;;20.00;63.40;;;;;;4934285;29;20019;-96
2023/05/13 11:55:25;;;;;;;;;;;20.20;64.90;;;;;;4935376;29;19918;-96
2023/05/13 11:57:52;;;;;;;;;;;20.10;66.20;;;;;;4934760;29;19958;-96
2023/05/13 12:00:23;;;;;;;;;;;20.00;63.70;;;;;;4934419;29;19918;-96
2023/05/13 12:02:49;;;;;;;;;;;20.10;63.70;;;;;;4951283;29;19922;-96
2023/05/13 12:05:15;;;;;;;;;;;20.10;62.90;;;;;;4950562;29;19982;-96
2023/05/13 12:07:42;;;;;;;;;;;20.10;64.30;;;;;;4951087;29;19911;-96
2023/05/13 12:10:08;;;;;;;;;;;20.40;63.60;;;;;;4951226;29;19914;-96
2023/05/13 12:12:38;;;;;;;;;;;21.10;64.90;;;;;;4935690;29;19953;-96
2023/05/13 12:15:06;;;;;;;;;;;21.70;62.60;;;;;;4950955;29;19918;-96
2023/05/13 12:17:32;;;;;;;;;;;21.90;62.90;;;;;;4934841;29;19911;-96
2023/05/13 12:20:18;;;;;;;;;;;22.30;63.80;;;;;;4934884;29;19935;-96
2023/05/13 12:22:44;;;;;;;;;;;22.40;61.20;;;;;;4934451;29;20343;-96
2023/05/13 12:25:28;;;;;;;;;;;22.10;61.60;;;;;;4935292;29;19915;-96
2023/05/13 12:27:55;;;;;;;;;;;21.90;62.40;;;;;;4951878;29;19911;-96
2023/05/13 12:30:21;;;;;;;;;;;21.60;62.40;;;;;;4933728;29;20356;-96
2023/05/13 12:32:47;;;;;;;;;;;21.30;63.80;;;;;;4933463;29;20009;-96
2023/05/13 12:35:15;;;;;;;;;;;21.10;63.70;;;;;;4951520;29;19911;-96
2023/05/13 12:37:41;;;;;;;;;;;20.80;64.00;;;;;;4934386;29;20383;-96
2023/05/13 12:40:08;;;;;;;;;;;20.80;65.40;;;;;;4951571;29;19969;-96
2023/05/13 12:42:34;;;;;;;;;;;20.40;64.80;;;;;;4934204;29;19918;-96
2023/05/13 12:45:01;;;;;;;;;;;20.20;66.20;;;;;;4933947;29;19915;-96
2023/05/13 12:47:26;;;;;;;;;;;20.00;67.00;;;;;;4951243;29;20087;-96
2023/05/13 12:49:59;;;;;;;;;;;19.90;67.50;;;;;;4934568;29;19946;-96
2023/05/13 12:52:25;;;;;;;;;;;19.80;66.90;;;;;;4934406;29;20007;-96
2023/05/13 12:54:50;;;;;;;;;;;19.70;66.30;;;;;;4933626;29;19920;-96
2023/05/13 12:57:17;;;;;;;;;;;19.60;67.40;;;;;;4934155;29;19915;-96
2023/05/13 12:59:44;;;;;;;;;;;19.60;67.60;;;;;;4934644;29;20003;-96
2023/05/13 13:02:10;;;;;;;;;;;19.60;67.70;;;;;;4952976;29;19923;-96
2023/05/13 13:04:36;;;;;;;;;;;19.60;68.40;;;;;;4939416;29;19914;-96
2023/05/13 13:07:02;;;;;;;;;;;19.60;70.00;;;;;;4940032;29;19934;-96
2023/05/13 13:09:28;;;;;;;;;;;19.70;70.20;;;;;;4955968;29;19937;-96
2023/05/13 13:11:54;;;;;;;;;;;19.70;68.90;;;;;;4939392;29;19910;-96
2023/05/13 13:14:22;;;;;;;;;;;19.70;69.40;;;;;;4939568;29;19915;-96
2023/05/13 13:16:48;;;;;;;;;;;19.70;68.30;;;;;;4938623;29;19915;-96
2023/05/13 13:19:16;;;;;;;;;;;19.70;67.80;;;;;;4938551;29;19970;-96
2023/05/13 13:21:42;;;;;;;;;;;19.70;67.50;;;;;;4938296;29;19974;-96
2023/05/13 13:24:08;;;;;;;;;;;19.70;66.90;;;;;;4938788;29;19919;-96
2023/05/13 13:26:34;;;;;;;;;;;19.70;66.40;;;;;;4938457;29;19926;-96
2023/05/13 13:29:00;;;;;;;;;;;20.30;67.50;;;;;;4938597;29;19910;-96
2023/05/13 13:31:25;;;;;;;;;;;21.50;63.30;;;;;;4954797;29;19918;-96
2023/05/13 13:33:52;;;;;;;;;;;22.30;59.30;;;;;;4937854;29;19939;-96
2023/05/13 13:36:18;;;;;;;;;;;22.70;58.00;;;;;;4938770;29;19930;-96
2023/05/13 13:38:44;;;;;;;;;;;23.60;57.50;;;;;;4938704;29;19970;-96
2023/05/13 13:41:10;;;;;;;;;;;24.30;55.90;;;;;;4939353;29;19917;-96
2023/05/13 13:43:36;;;;;;;;;;;24.80;52.00;;;;;;4938017;29;19978;-96
2023/05/13 13:46:05;;;;;;;;;;;24.20;51.80;;;;;;4938217;29;19915;-96
2023/05/13 13:48:34;;;;;;;;;;;23.90;53.00;;;;;;4938402;29;19917;-96
2023/05/13 13:51:00;;;;;;;;;;;23.30;53.30;;;;;;4937237;29;19919;-96
2023/05/13 13:53:26;;;;;;;;;;;22.80;56.30;;;;;;4936871;29;19917;-96
2023/05/13 13:55:55;;;;;;;;;;;22.50;55.20;;;;;;4941789;29;19911;-96
2023/05/13 13:58:24;;;;;;;;;;;22.30;57.80;;;;;;4928590;29;19957;-96
2023/05/13 14:00:51;;;;;;;;;;;21.80;58.60;;;;;;4944275;29;19911;-96
2023/05/13 14:03:17;;;;;;;;;;;21.50;59.80;;;;;;4943557;29;19922;-96
2023/05/13 14:05:44;;;;;;;;;;;21.30;60.00;;;;;;4941982;29;19965;-96
2023/05/13 14:08:15;;;;;;;;;;;21.10;60.30;;;;;;4943835;29;19911;-96
2023/05/13 14:10:43;;;;;;;;;;;21.00;61.10;;;;;;4944808;29;19895;-96
2023/05/13 14:13:14;;;;;;;;;;;21.00;61.60;;;;;;4928060;29;19915;-96
2023/05/13 14:15:44;;;;;;;;;;;20.90;62.00;;;;;;4945147;29;19921;-96
2023/05/13 14:18:14;;;;;;;;;;;21.00;63.00;;;;;;4960716;29;19911;-96